createdAt,value
2018-04-12T00:00:00.644Z,98.00
2018-04-12T00:02:28.880Z,97.90
2018-04-12T00:04:56.420Z,97.90
2018-04-12T00:07:23.893Z,97.90
2018-04-12T00:09:52.112Z,98.10
2018-04-12T00:12:20.364Z,98.00
2018-04-12T00:14:48.166Z,98.00
2018-04-12T00:17:16.195Z,98.20
2018-04-12T00:19:43.760Z,98.30
2018-04-12T00:22:11.324Z,98.40
2018-04-12T00:24:39.625Z,98.60
2018-04-12T00:27:07.118Z,98.60
2018-04-12T00:29:34.585Z,98.80
2018-04-12T00:32:02.181Z,98.80
2018-04-12T00:34:30.644Z,99.30
2018-04-12T00:36:58.111Z,99.30
2018-04-12T00:39:25.592Z,99.40
2018-04-12T00:41:53.209Z,99.40
2018-04-12T00:44:20.675Z,99.80
2018-04-12T00:46:48.245Z,99.90
2018-04-12T00:49:16.203Z,99.90
2018-04-12T00:51:43.668Z,99.90
2018-04-12T00:54:11.227Z,99.90
2018-04-12T00:56:38.984Z,99.90
2018-04-12T00:59:06.548Z,99.90
2018-04-12T01:01:34.117Z,99.90
2018-04-12T01:04:02.591Z,99.90
2018-04-12T01:06:30.060Z,99.90
2018-04-12T01:08:58.305Z,99.90
2018-04-12T01:11:26.388Z,99.90
2018-04-12T01:13:53.952Z,99.90
2018-04-12T01:16:21.516Z,99.90
2018-04-12T01:18:49.892Z,99.90
2018-04-12T01:21:17.465Z,99.90
2018-04-12T01:23:45.698Z,99.90
2018-04-12T01:26:13.300Z,99.90
2018-04-12T01:28:41.570Z,99.90
2018-04-12T01:31:09.844Z,99.90
2018-04-12T01:33:38.321Z,99.90
2018-04-12T01:36:05.881Z,99.90
2018-04-12T01:38:33.436Z,99.90
2018-04-12T01:41:01.051Z,99.90
2018-04-12T01:43:28.568Z,99.90
2018-04-12T01:45:56.801Z,99.90
2018-04-12T01:48:24.460Z,99.90
2018-04-12T01:50:52.508Z,99.90
2018-04-12T01:53:20.101Z,99.90
2018-04-12T01:55:47.577Z,99.90
2018-04-12T01:58:15.209Z,99.90
2018-04-12T02:00:43.001Z,99.90
2018-04-12T02:03:10.536Z,99.90
2018-04-12T02:05:38.057Z,99.90
2018-04-12T02:08:06.001Z,99.90
2018-04-12T02:10:34.267Z,99.90
2018-04-12T02:13:02.545Z,99.90
2018-04-12T02:15:31.123Z,99.90
2018-04-12T02:17:59.369Z,99.90
2018-04-12T02:20:26.838Z,99.90
2018-04-12T02:22:54.809Z,99.90
2018-04-12T02:25:22.384Z,99.90
2018-04-12T02:27:50.659Z,99.90
2018-04-12T02:30:18.316Z,99.90
2018-04-12T02:32:45.872Z,99.90
2018-04-12T02:35:13.436Z,99.90
2018-04-12T02:37:41.085Z,99.90
2018-04-12T02:40:08.657Z,99.90
2018-04-12T02:42:36.215Z,99.90
2018-04-12T02:45:03.784Z,99.90
2018-04-12T02:47:32.060Z,99.90
2018-04-12T02:50:00.329Z,99.90
2018-04-12T02:52:28.903Z,99.90
2018-04-12T02:54:56.520Z,99.90
2018-04-12T02:57:23.991Z,99.90
2018-04-12T02:59:51.477Z,99.90
2018-04-12T03:02:19.353Z,99.90
2018-04-12T03:04:47.874Z,99.90
2018-04-12T03:07:15.406Z,99.90
2018-04-12T03:09:43.670Z,99.90
2018-04-12T03:12:12.152Z,99.90
2018-04-12T03:14:40.557Z,99.90
2018-04-12T03:17:08.092Z,99.90
2018-04-12T03:19:36.436Z,99.90
2018-04-12T03:22:03.923Z,99.90
2018-04-12T03:24:32.261Z,99.90
2018-04-12T03:27:00.477Z,99.90
2018-04-12T03:29:28.952Z,99.90
2018-04-12T03:31:56.465Z,99.90
2018-04-12T03:34:24.296Z,99.90
2018-04-12T03:36:52.551Z,99.90
2018-04-12T03:39:20.107Z,99.90
2018-04-12T03:41:47.702Z,99.90
2018-04-12T03:44:15.235Z,99.90
2018-04-12T03:46:43.608Z,99.90
2018-04-12T03:49:11.935Z,99.90
2018-04-12T03:51:40.156Z,99.90
2018-04-12T03:54:07.777Z,99.90
2018-04-12T03:56:35.276Z,99.90
2018-04-12T03:59:03.036Z,99.90
2018-04-12T04:01:30.601Z,99.90
2018-04-12T04:03:59.541Z,99.90
2018-04-12T04:06:27.248Z,99.90
2018-04-12T04:08:54.733Z,99.90
2018-04-12T04:11:22.267Z,99.90
2018-04-12T04:13:50.101Z,99.90
2018-04-12T04:16:29.414Z,99.90
2018-04-12T04:19:09.004Z,99.90
2018-04-12T04:21:36.474Z,99.90
2018-04-12T04:24:04.749Z,99.90
2018-04-12T04:26:33.330Z,99.90
2018-04-12T04:29:01.572Z,99.90
2018-04-12T04:31:29.044Z,99.90
2018-04-12T04:33:56.820Z,99.90
2018-04-12T04:36:24.396Z,99.90
2018-04-12T04:38:52.853Z,99.90
2018-04-12T04:41:20.420Z,99.90
2018-04-12T04:43:48.181Z,99.90
2018-04-12T04:46:16.768Z,99.90
2018-04-12T04:48:44.427Z,99.90
2018-04-12T04:51:13.065Z,99.90
2018-04-12T04:53:40.538Z,99.90
2018-04-12T04:56:08.011Z,99.90
2018-04-12T04:58:37.245Z,99.90
2018-04-12T05:01:04.833Z,99.90
2018-04-12T05:03:32.756Z,99.90
2018-04-12T05:06:01.757Z,99.90
2018-04-12T05:08:30.724Z,99.90
2018-04-12T05:10:58.282Z,99.90
2018-04-12T05:13:25.953Z,99.90
2018-04-12T05:15:53.529Z,99.90
2018-04-12T05:18:21.996Z,99.90
2018-04-12T05:20:50.477Z,99.90
2018-04-12T05:23:17.957Z,99.90
2018-04-12T05:25:45.609Z,99.90
2018-04-12T05:28:13.912Z,99.90
2018-04-12T05:30:41.560Z,99.90
2018-04-12T05:33:09.247Z,99.90
2018-04-12T05:35:36.886Z,99.90
2018-04-12T05:38:04.718Z,99.90
2018-04-12T05:40:32.192Z,99.90
2018-04-12T05:43:00.450Z,99.90
2018-04-12T05:45:28.240Z,99.90
2018-04-12T05:47:56.896Z,99.90
2018-04-12T05:50:24.557Z,99.90
2018-04-12T05:52:53.214Z,99.90
2018-04-12T05:55:20.704Z,99.90
2018-04-12T05:57:48.308Z,99.90
2018-04-12T06:00:15.816Z,99.90
2018-04-12T06:02:43.481Z,99.90
2018-04-12T06:05:11.600Z,99.90
2018-04-12T06:07:39.756Z,99.90
2018-04-12T06:10:07.248Z,99.90
2018-04-12T06:12:34.848Z,99.90
2018-04-12T06:15:03.437Z,99.90
2018-04-12T06:17:31.813Z,99.90
2018-04-12T06:20:00.398Z,99.90
2018-04-12T06:22:28.646Z,99.90
2018-04-12T06:24:56.980Z,99.90
2018-04-12T06:27:24.453Z,99.90
2018-04-12T06:29:51.972Z,99.90
2018-04-12T06:32:20.546Z,99.90
2018-04-12T06:34:48.820Z,99.90
2018-04-12T06:37:16.391Z,99.90
2018-04-12T06:39:44.920Z,99.90
2018-04-12T06:42:12.556Z,99.90
2018-04-12T06:44:40.028Z,99.80
2018-04-12T06:47:07.585Z,99.60
2018-04-12T06:49:35.095Z,99.60
2018-04-12T06:52:02.656Z,99.30
2018-04-12T06:54:30.997Z,99.80
2018-04-12T06:56:58.498Z,99.80
2018-04-12T06:59:26.737Z,99.90
2018-04-12T07:01:55.045Z,99.90
2018-04-12T07:04:23.285Z,99.10
2018-04-12T07:06:50.756Z,99.10
2018-04-12T07:09:18.364Z,99.10
2018-04-12T07:11:46.449Z,98.90
2018-04-12T07:14:13.961Z,98.40
2018-04-12T07:16:41.521Z,98.40
2018-04-12T07:19:10.204Z,96.70
2018-04-12T07:21:38.480Z,97.00
2018-04-12T07:24:06.045Z,97.00
2018-04-12T07:26:34.760Z,97.40
2018-04-12T07:29:02.232Z,97.40
2018-04-12T07:31:29.747Z,97.60
2018-04-12T07:33:58.044Z,96.40
2018-04-12T07:36:25.525Z,96.40
2018-04-12T07:38:53.037Z,94.80
2018-04-12T07:41:21.512Z,93.50
2018-04-12T07:43:49.770Z,93.50
2018-04-12T07:46:17.224Z,93.30
2018-04-12T07:48:44.761Z,93.40
2018-04-12T07:51:12.249Z,92.50
2018-04-12T07:53:39.761Z,91.60
2018-04-12T07:56:07.377Z,90.60
2018-04-12T07:58:34.860Z,87.90
2018-04-12T08:01:03.528Z,83.50
2018-04-12T08:03:31.804Z,84.50
2018-04-12T08:06:00.046Z,83.80
2018-04-12T08:08:27.741Z,83.70
2018-04-12T08:10:55.980Z,81.40
2018-04-12T08:13:23.471Z,81.30
2018-04-12T08:15:52.052Z,83.50
2018-04-12T08:18:19.616Z,83.50
2018-04-12T08:20:47.892Z,84.40
2018-04-12T08:23:16.467Z,83.90
2018-04-12T08:25:44.032Z,83.80
2018-04-12T08:28:12.319Z,82.70
2018-04-12T08:30:40.896Z,82.10
2018-04-12T08:33:09.141Z,82.00
2018-04-12T08:35:36.616Z,81.90
2018-04-12T08:38:04.484Z,79.10
2018-04-12T08:40:31.968Z,80.90
2018-04-12T08:43:00.408Z,79.40
2018-04-12T08:45:27.987Z,77.80
2018-04-12T08:47:56.262Z,79.00
2018-04-12T08:50:24.020Z,78.10
2018-04-12T08:52:51.490Z,77.80
2018-04-12T08:55:19.736Z,78.10
2018-04-12T08:57:47.430Z,78.00
2018-04-12T09:00:15.709Z,72.40
2018-04-12T09:02:44.276Z,69.60
2018-04-12T09:05:12.040Z,69.50
2018-04-12T09:07:40.434Z,68.10
2018-04-12T09:10:09.208Z,70.70
2018-04-12T09:12:36.772Z,70.70
2018-04-12T09:15:04.261Z,70.90
2018-04-12T09:17:32.096Z,69.40
2018-04-12T09:19:59.856Z,72.00
2018-04-12T09:22:27.732Z,73.60
2018-04-12T09:24:55.492Z,73.10
2018-04-12T09:27:23.972Z,74.50
2018-04-12T09:29:51.613Z,73.60
2018-04-12T09:32:19.087Z,74.30
2018-04-12T09:34:46.567Z,73.90
2018-04-12T09:37:15.028Z,72.30
2018-04-12T09:39:42.788Z,72.20
2018-04-12T09:42:10.557Z,74.10
2018-04-12T09:44:38.420Z,76.00
2018-04-12T09:47:06.214Z,76.80
2018-04-12T09:49:34.052Z,76.30
2018-04-12T09:52:01.752Z,77.00
2018-04-12T09:54:29.314Z,77.10
2018-04-12T09:56:56.888Z,79.20
2018-04-12T09:59:24.600Z,78.60
2018-04-12T10:01:54.718Z,78.60
2018-04-12T10:04:27.600Z,81.20
2018-04-12T10:07:02.694Z,80.70
2018-04-12T10:09:31.008Z,79.90
2018-04-12T10:12:00.205Z,81.80
2018-04-12T10:14:27.968Z,81.80
2018-04-12T10:16:55.839Z,81.80
2018-04-12T10:19:23.600Z,82.60
2018-04-12T10:21:51.369Z,83.10
2018-04-12T10:24:19.024Z,82.50
2018-04-12T10:26:46.506Z,83.20
2018-04-12T10:29:15.268Z,82.80
2018-04-12T10:31:42.936Z,82.80
2018-04-12T10:34:11.354Z,83.90
2018-04-12T10:36:39.180Z,83.90
2018-04-12T10:39:06.945Z,81.80
2018-04-12T10:41:35.317Z,84.70
2018-04-12T10:44:03.025Z,84.50
2018-04-12T10:46:30.501Z,85.70
2018-04-12T10:48:58.200Z,85.40
2018-04-12T10:51:25.779Z,85.20
2018-04-12T10:53:54.145Z,81.70
2018-04-12T10:56:22.652Z,80.50
2018-04-12T10:58:50.384Z,80.50
2018-04-12T11:01:18.149Z,81.50
2018-04-12T11:03:46.116Z,82.30
2018-04-12T11:06:14.352Z,80.40
2018-04-12T11:08:41.885Z,80.20
2018-04-12T11:11:09.932Z,80.20
2018-04-12T11:13:38.399Z,81.20
2018-04-12T11:16:06.636Z,80.70
2018-04-12T11:18:34.610Z,80.60
2018-04-12T11:21:02.617Z,80.90
2018-04-12T11:23:31.728Z,81.20
2018-04-12T11:25:59.993Z,81.70
2018-04-12T11:28:27.649Z,81.50
2018-04-12T11:30:55.900Z,80.00
2018-04-12T11:33:23.698Z,80.20
2018-04-12T11:35:52.140Z,80.60
2018-04-12T11:38:19.732Z,80.60
2018-04-12T11:40:48.335Z,81.10
2018-04-12T11:43:16.941Z,80.70
2018-04-12T11:45:44.456Z,80.70
2018-04-12T11:48:12.546Z,82.00
2018-04-12T11:50:40.779Z,82.90
2018-04-12T11:53:08.245Z,82.80
2018-04-12T11:55:35.928Z,83.90
2018-04-12T11:58:04.200Z,81.80
2018-04-12T12:00:31.681Z,81.80
2018-04-12T12:03:00.036Z,77.70
2018-04-12T12:05:28.272Z,76.70
2018-04-12T12:07:55.768Z,76.50
2018-04-12T12:10:23.325Z,75.20
2018-04-12T12:12:50.788Z,75.00
2018-04-12T12:15:19.026Z,68.70
2018-04-12T12:17:46.922Z,68.50
2018-04-12T12:20:15.408Z,66.30
2018-04-12T12:22:43.478Z,66.30
2018-04-12T12:25:11.336Z,65.60
2018-04-12T12:27:39.000Z,67.00
2018-04-12T12:30:06.769Z,63.80
2018-04-12T12:32:35.257Z,63.10
2018-04-12T12:35:03.499Z,64.50
2018-04-12T12:37:31.084Z,64.40
2018-04-12T12:39:59.772Z,63.20
2018-04-12T12:42:28.959Z,61.50
2018-04-12T12:44:56.624Z,61.40
2018-04-12T12:47:24.213Z,61.50
2018-04-12T12:49:52.777Z,62.00
2018-04-12T12:52:21.357Z,60.80
2018-04-12T12:54:48.833Z,60.70
2018-04-12T12:57:17.185Z,60.10
2018-04-12T12:59:44.656Z,60.10
2018-04-12T13:02:13.033Z,59.40
2018-04-12T13:04:41.389Z,62.00
2018-04-12T13:07:08.945Z,62.00
2018-04-12T13:09:36.517Z,61.10
2018-04-12T13:12:05.325Z,60.40
2018-04-12T13:14:33.888Z,62.20
2018-04-12T13:17:01.454Z,62.10
2018-04-12T13:19:28.985Z,63.60
2018-04-12T13:21:56.463Z,65.90
2018-04-12T13:24:24.551Z,67.50
2018-04-12T13:26:52.401Z,64.10
2018-04-12T13:29:19.969Z,65.00
2018-04-12T13:31:48.203Z,65.50
2018-04-12T13:34:15.905Z,64.70
2018-04-12T13:36:43.456Z,65.60
2018-04-12T13:39:10.920Z,68.80
2018-04-12T13:41:38.453Z,69.00
2018-04-12T13:44:06.079Z,69.80
2018-04-12T13:46:33.612Z,68.50
2018-04-12T13:49:01.861Z,70.50
2018-04-12T13:51:29.532Z,70.40
2018-04-12T13:53:57.112Z,68.70
2018-04-12T13:56:25.371Z,68.00
2018-04-12T13:58:53.810Z,70.60
2018-04-12T14:01:21.277Z,70.60
2018-04-12T14:03:48.769Z,69.30
2018-04-12T14:06:17.465Z,68.30
2018-04-12T14:08:45.709Z,69.20
2018-04-12T14:11:13.324Z,69.00
2018-04-12T14:13:40.897Z,68.50
2018-04-12T14:16:08.365Z,69.60
2018-04-12T14:18:35.940Z,67.90
2018-04-12T14:21:03.524Z,70.50
2018-04-12T14:23:31.741Z,69.50
2018-04-12T14:25:59.214Z,69.70
2018-04-12T14:28:26.792Z,70.50
2018-04-12T14:30:54.288Z,71.00
2018-04-12T14:33:22.944Z,72.00
2018-04-12T14:35:50.418Z,72.00
2018-04-12T14:38:18.662Z,71.90
2018-04-12T14:40:46.345Z,71.80
2018-04-12T14:43:13.908Z,71.90
2018-04-12T14:45:41.881Z,71.90
2018-04-12T14:48:10.109Z,72.30
2018-04-12T14:50:37.804Z,72.20
2018-04-12T14:53:05.289Z,70.00
2018-04-12T14:55:33.521Z,72.00
2018-04-12T14:58:01.041Z,71.90
2018-04-12T15:00:28.505Z,69.20
2018-04-12T15:02:56.115Z,72.60
2018-04-12T15:05:23.656Z,70.20
2018-04-12T15:07:51.994Z,71.80
2018-04-12T15:10:19.483Z,71.70
2018-04-12T15:12:46.952Z,70.10
2018-04-12T15:15:14.416Z,70.30
2018-04-12T15:17:42.184Z,66.80
2018-04-12T15:20:09.659Z,69.10
2018-04-12T15:22:37.884Z,68.60
2018-04-12T15:25:05.417Z,68.50
2018-04-12T15:27:32.888Z,64.70
2018-04-12T15:30:00.565Z,64.10
2018-04-12T15:32:28.586Z,65.10
2018-04-12T15:34:57.864Z,63.80
2018-04-12T15:37:25.729Z,63.80
2018-04-12T15:39:53.196Z,66.00
2018-04-12T15:42:21.457Z,65.40
2018-04-12T15:44:48.985Z,65.40
2018-04-12T15:47:16.459Z,64.60
2018-04-12T15:49:44.013Z,65.40
2018-04-12T15:52:11.497Z,64.10
2018-04-12T15:54:39.502Z,64.80
2018-04-12T15:57:06.963Z,66.10
2018-04-12T15:59:34.423Z,67.70
2018-04-12T16:02:01.936Z,68.20
2018-04-12T16:04:29.495Z,69.60
2018-04-12T16:06:57.099Z,71.30
2018-04-12T16:09:25.816Z,71.30
2018-04-12T16:11:53.289Z,71.40
2018-04-12T16:14:20.829Z,71.50
2018-04-12T16:16:48.348Z,73.60
2018-04-12T16:19:15.821Z,73.20
2018-04-12T16:21:43.294Z,74.50
2018-04-12T16:24:11.308Z,73.60
2018-04-12T16:26:38.864Z,73.00
2018-04-12T16:29:06.440Z,73.60
2018-04-12T16:31:34.908Z,72.10
2018-04-12T16:34:02.368Z,72.10
2018-04-12T16:36:31.033Z,71.90
2018-04-12T16:38:58.802Z,71.10
2018-04-12T16:41:26.248Z,71.80
2018-04-12T16:43:53.720Z,71.90
2018-04-12T16:46:21.300Z,71.30
2018-04-12T16:48:49.763Z,72.00
2018-04-12T16:51:17.228Z,72.10
2018-04-12T16:53:45.544Z,74.80
2018-04-12T16:56:13.067Z,74.90
2018-04-12T16:58:41.329Z,74.20
2018-04-12T17:01:08.797Z,74.10
2018-04-12T17:03:37.036Z,77.00
2018-04-12T17:06:04.776Z,77.10
2018-04-12T17:08:32.249Z,77.70
2018-04-12T17:10:59.769Z,77.60
2018-04-12T17:13:27.244Z,77.50
2018-04-12T17:15:54.765Z,78.50
2018-04-12T17:18:23.140Z,77.90
2018-04-12T17:20:50.604Z,77.00
2018-04-12T17:23:18.841Z,83.00
2018-04-12T17:25:46.399Z,83.00
2018-04-12T17:28:14.045Z,83.70
2018-04-12T17:30:41.956Z,82.80
2018-04-12T17:33:09.522Z,83.50
2018-04-12T17:35:37.795Z,81.70
2018-04-12T17:38:06.604Z,80.40
2018-04-12T17:40:34.068Z,80.30
2018-04-12T17:43:01.532Z,78.60
2018-04-12T17:45:29.878Z,80.30
2018-04-12T17:47:58.151Z,82.40
2018-04-12T17:50:25.708Z,82.40
2018-04-12T17:52:53.315Z,85.40
2018-04-12T17:55:20.833Z,85.80
2018-04-12T17:57:48.389Z,85.70
2018-04-12T18:00:16.552Z,82.70
2018-04-12T18:02:44.016Z,85.10
2018-04-12T18:05:11.490Z,85.00
2018-04-12T18:07:40.057Z,87.90
2018-04-12T18:10:07.624Z,87.60
2018-04-12T18:12:35.907Z,87.20
2018-04-12T18:15:03.432Z,87.40
2018-04-12T18:17:30.907Z,85.90
2018-04-12T18:19:58.413Z,85.00
2018-04-12T18:22:26.696Z,89.00
2018-04-12T18:24:54.168Z,89.00
2018-04-12T18:27:21.665Z,87.80
2018-04-12T18:29:49.932Z,87.60
2018-04-12T18:32:17.396Z,87.60
2018-04-12T18:34:45.664Z,90.10
2018-04-12T18:37:13.429Z,89.90
2018-04-12T18:39:40.920Z,90.60
2018-04-12T18:42:09.061Z,91.50
2018-04-12T18:44:36.669Z,89.50
2018-04-12T18:47:04.460Z,88.30
2018-04-12T18:49:32.049Z,89.40
2018-04-12T18:52:00.324Z,90.80
2018-04-12T18:54:28.094Z,90.70
2018-04-12T18:56:56.424Z,91.50
2018-04-12T18:59:23.892Z,91.40
2018-04-12T19:01:51.405Z,91.80
2018-04-12T19:04:18.937Z,92.50
2018-04-12T19:06:46.600Z,92.10
2018-04-12T19:09:14.160Z,91.90
2018-04-12T19:11:42.423Z,93.60
2018-04-12T19:14:10.912Z,93.80
2018-04-12T19:16:38.477Z,93.80
2018-04-12T19:19:06.755Z,94.50
2018-04-12T19:21:35.338Z,94.40
2018-04-12T19:24:02.812Z,94.40
2018-04-12T19:26:30.301Z,95.10
2018-04-12T19:28:58.011Z,95.70
2018-04-12T19:31:25.593Z,96.10
2018-04-12T19:33:53.134Z,96.00
2018-04-12T19:36:21.464Z,96.10
2018-04-12T19:38:48.932Z,96.10
2018-04-12T19:41:16.471Z,96.40
2018-04-12T19:43:43.973Z,96.50
2018-04-12T19:46:11.543Z,96.40
2018-04-12T19:48:39.813Z,96.70
2018-04-12T19:51:07.289Z,97.40
2018-04-12T19:53:35.532Z,97.70
2018-04-12T19:56:03.037Z,97.60
2018-04-12T19:58:30.514Z,97.40
2018-04-12T20:00:58.068Z,97.60
2018-04-12T20:03:25.536Z,98.00
2018-04-12T20:05:53.109Z,97.70
2018-04-12T20:08:20.820Z,97.70
2018-04-12T20:10:48.360Z,97.50
2018-04-12T20:13:15.976Z,97.60
2018-04-12T20:15:43.478Z,97.60
2018-04-12T20:18:11.712Z,98.70
2018-04-12T20:20:39.257Z,98.70
2018-04-12T20:23:06.768Z,98.30
2018-04-12T20:25:35.340Z,97.80
2018-04-12T20:28:03.029Z,98.00
2018-04-12T20:30:30.677Z,98.80
2018-04-12T20:32:58.946Z,99.00
2018-04-12T20:35:26.527Z,99.00
2018-04-12T20:37:54.472Z,99.50
2018-04-12T20:40:22.032Z,99.60
2018-04-12T20:42:49.605Z,99.80
2018-04-12T20:45:18.790Z,99.70
2018-04-12T20:47:47.071Z,99.70
2018-04-12T20:50:16.003Z,99.60
2018-04-12T20:52:43.553Z,99.20
2018-04-12T20:55:11.026Z,99.60
2018-04-12T20:57:38.534Z,99.60
2018-04-12T21:00:06.291Z,99.70
2018-04-12T21:02:35.848Z,99.60
2018-04-12T21:05:03.360Z,99.80
2018-04-12T21:07:32.041Z,99.80
2018-04-12T21:09:59.518Z,99.50
2018-04-12T21:12:27.776Z,99.90
2018-04-12T21:14:56.152Z,99.90
2018-04-12T21:17:23.712Z,99.90
2018-04-12T21:19:51.268Z,99.90
2018-04-12T21:22:19.200Z,99.90
2018-04-12T21:24:46.692Z,99.90
2018-04-12T21:27:14.275Z,99.90
2018-04-12T21:29:42.542Z,99.90
2018-04-12T21:32:10.888Z,99.90
2018-04-12T21:34:38.413Z,99.90
2018-04-12T21:37:05.877Z,99.90
2018-04-12T21:39:33.509Z,99.90
2018-04-12T21:42:01.453Z,99.90
2018-04-12T21:44:28.908Z,99.90
2018-04-12T21:46:56.376Z,99.90
2018-04-12T21:49:24.851Z,99.90
2018-04-12T21:51:52.757Z,99.90
2018-04-12T21:54:20.576Z,99.90
2018-04-12T21:56:48.238Z,99.90
2018-04-12T21:59:15.796Z,99.90
2018-04-12T22:01:43.461Z,99.90
2018-04-12T22:04:10.932Z,99.90
2018-04-12T22:06:39.192Z,99.90
2018-04-12T22:09:07.161Z,99.90
2018-04-12T22:11:35.023Z,99.90
2018-04-12T22:14:02.684Z,99.90
2018-04-12T22:16:30.203Z,99.90
2018-04-12T22:18:57.669Z,99.90
2018-04-12T22:21:25.267Z,99.90
2018-04-12T22:23:52.920Z,99.90
2018-04-12T22:26:20.484Z,99.90
2018-04-12T22:28:48.036Z,99.90
2018-04-12T22:31:15.903Z,99.90
2018-04-12T22:33:43.568Z,99.90
2018-04-12T22:36:11.228Z,99.90
2018-04-12T22:38:38.996Z,99.90
2018-04-12T22:41:07.032Z,99.90
2018-04-12T22:43:34.492Z,99.90
2018-04-12T22:46:02.083Z,99.90
2018-04-12T22:48:30.356Z,99.90
2018-04-12T22:50:58.020Z,99.90
2018-04-12T22:53:25.782Z,99.90
2018-04-12T22:55:54.465Z,99.90
2018-04-12T22:58:21.925Z,99.90
2018-04-12T23:00:49.416Z,99.90
2018-04-12T23:03:17.452Z,99.90
2018-04-12T23:05:45.012Z,99.90
2018-04-12T23:08:12.807Z,99.90
2018-04-12T23:10:40.641Z,99.90
2018-04-12T23:13:08.217Z,99.90
2018-04-12T23:15:37.236Z,99.90
2018-04-12T23:18:04.927Z,99.90
2018-04-12T23:20:32.498Z,99.90
2018-04-12T23:22:59.977Z,99.90
2018-04-12T23:25:28.660Z,99.90
2018-04-12T23:27:56.509Z,99.90
2018-04-12T23:30:24.089Z,99.90
2018-04-12T23:32:52.564Z,99.90
2018-04-12T23:35:20.648Z,99.90
2018-04-12T23:37:49.525Z,99.90
2018-04-12T23:40:17.289Z,99.90
2018-04-12T23:42:44.852Z,99.90
2018-04-12T23:45:12.432Z,99.90
2018-04-12T23:47:40.889Z,99.90
2018-04-12T23:50:08.752Z,99.90
2018-04-12T23:52:37.948Z,99.90
2018-04-12T23:55:05.616Z,99.90
2018-04-12T23:57:33.481Z,99.90
